createdAt,value
2022-11-10T00:02:06.008Z,98025.41
2022-11-10T00:06:11.441Z,98042.50
2022-11-10T00:10:16.018Z,98047.53
2022-11-10T00:14:36.655Z,98047.53
2022-11-10T00:18:40.363Z,98052.59
2022-11-10T00:22:45.308Z,98046.72
2022-11-10T00:26:48.746Z,98033.88
2022-11-10T00:30:52.708Z,98042.63
2022-11-10T00:34:56.073Z,98046.84
2022-11-10T00:39:00.707Z,98054.63
2022-11-10T00:43:04.129Z,98061.47
2022-11-10T00:47:21.923Z,98057.94
2022-11-10T00:51:26.854Z,98051.06
2022-11-10T00:55:32.012Z,98074.44
2022-11-10T00:59:35.057Z,98070.22
2022-11-10T01:03:39.178Z,98073.91
2022-11-10T01:07:42.628Z,98072.41
2022-11-10T01:11:47.112Z,98081.41
2022-11-10T01:15:50.685Z,98086.88
2022-11-10T01:19:54.231Z,98084.81
2022-11-10T01:23:57.818Z,98087.16
2022-11-10T01:28:02.993Z,98092.34
2022-11-10T01:32:06.762Z,98081.97
2022-11-10T01:36:11.947Z,98088.91
2022-11-10T01:40:16.157Z,98086.19
2022-11-10T01:44:23.175Z,98091.78
2022-11-10T01:48:33.075Z,98090.59
2022-11-10T01:52:37.723Z,98089.34
2022-11-10T01:56:45.172Z,98095.06
2022-11-10T02:00:49.718Z,98091.28
2022-11-10T02:04:54.579Z,98090.19
2022-11-10T02:09:00.163Z,98092.63
2022-11-10T02:13:03.345Z,98098.38
2022-11-10T02:17:08.305Z,98095.63
2022-11-10T02:21:13.174Z,98103.28
2022-11-10T02:25:20.807Z,98099.75
2022-11-10T02:29:25.471Z,98098.09
2022-11-10T02:33:29.022Z,98104.66
2022-11-10T02:37:33.688Z,98109.56
2022-11-10T02:41:37.196Z,98111.22
2022-11-10T02:45:42.347Z,98115.31
2022-11-10T02:49:46.375Z,98116.69
2022-11-10T02:53:51.750Z,98121.47
2022-11-10T02:57:55.154Z,98130.63
2022-11-10T03:01:58.155Z,98141.63
2022-11-10T03:06:02.172Z,98160.47
2022-11-10T03:10:08.200Z,98159.53
2022-11-10T03:14:11.906Z,98146.53
2022-11-10T03:18:15.522Z,98161.56
2022-11-10T03:22:18.843Z,98170.31
2022-11-10T03:26:24.060Z,98173.84
2022-11-10T03:30:28.062Z,98178.34
2022-11-10T03:34:32.037Z,98186.97
2022-11-10T03:38:35.676Z,98192.19
2022-11-10T03:42:43.626Z,98194.63
2022-11-10T03:46:51.279Z,98206.69
2022-11-10T03:50:55.150Z,98215.28
2022-11-10T03:55:03.138Z,98220.47
2022-11-10T03:59:07.956Z,98228.97
2022-11-10T04:03:11.482Z,98231.44
2022-11-10T04:07:33.166Z,98234.75
2022-11-10T04:11:53.631Z,98241.44
2022-11-10T04:15:58.563Z,98242.94
2022-11-10T04:20:04.164Z,98247.16
2022-11-10T04:24:07.927Z,98250.59
2022-11-10T04:28:11.382Z,98256.50
2022-11-10T04:32:16.385Z,98258.97
2022-11-10T04:36:21.386Z,98260.59
2022-11-10T04:40:24.874Z,98267.41
2022-11-10T04:44:28.005Z,98269.09
2022-11-10T04:48:33.851Z,98269.09
2022-11-10T04:52:37.311Z,98281.13
2022-11-10T04:56:40.931Z,98293.16
2022-11-10T05:00:44.889Z,98296.44
2022-11-10T05:04:49.763Z,98290.16
2022-11-10T05:08:53.231Z,98282.47
2022-11-10T05:12:59.109Z,98286.03
2022-11-10T05:17:02.523Z,98306.00
2022-11-10T05:21:07.403Z,98307.63
2022-11-10T05:25:10.994Z,98313.53
2022-11-10T05:29:14.402Z,98315.03
2022-11-10T05:33:17.927Z,98314.78
2022-11-10T05:37:22.458Z,98318.88
2022-11-10T05:41:26.037Z,98324.78
2022-11-10T05:45:30.354Z,98321.06
2022-11-10T05:49:33.941Z,98328.75
2022-11-10T05:53:38.790Z,98343.25
2022-11-10T05:57:44.248Z,98353.50
2022-11-10T06:01:47.660Z,98346.66
2022-11-10T06:05:52.673Z,98353.50
2022-11-10T06:09:57.035Z,98354.34
2022-11-10T06:14:01.566Z,98364.88
2022-11-10T06:22:08.023Z,98380.19
2022-11-10T06:26:13.446Z,98384.84
2022-11-10T06:30:17.354Z,98390.47
2022-11-10T06:34:22.567Z,98395.09
2022-11-10T06:38:26.149Z,98399.88
2022-11-10T06:42:30.528Z,98400.94
2022-11-10T06:46:38.177Z,98416.84
2022-11-10T06:50:44.832Z,98444.22
2022-11-10T06:54:47.831Z,98463.66
2022-11-10T06:58:52.711Z,98473.66
2022-11-10T07:03:03.701Z,98490.38
2022-11-10T07:07:06.843Z,98496.84
2022-11-10T07:11:10.342Z,98493.84
2022-11-10T07:15:16.398Z,98496.88
2022-11-10T07:19:19.574Z,98498.25
2022-11-10T07:23:23.605Z,98489.22
2022-11-10T07:27:27.382Z,98500.47
2022-11-10T07:31:31.748Z,98505.97
2022-11-10T07:35:36.382Z,98503.81
2022-11-10T07:39:39.678Z,98518.34
2022-11-10T07:43:43.129Z,98518.91
2022-11-10T07:47:47.984Z,98532.91
2022-11-10T07:51:51.033Z,98538.69
2022-11-10T07:55:55.356Z,98540.88
2022-11-10T07:59:58.560Z,98536.22
2022-11-10T08:04:03.087Z,98559.81
2022-11-10T08:08:07.278Z,98537.00
2022-11-10T08:12:10.840Z,98557.88
2022-11-10T08:16:14.303Z,98562.94
2022-11-10T08:20:19.628Z,98575.41
2022-11-10T08:24:23.046Z,98581.03
2022-11-10T08:28:26.819Z,98599.00
2022-11-10T08:32:30.375Z,98605.03
2022-11-10T08:36:34.918Z,98610.38
2022-11-10T08:40:39.044Z,98615.75
2022-11-10T08:44:42.500Z,98611.06
2022-11-10T08:48:46.136Z,98622.03
2022-11-10T08:52:50.950Z,98633.84
2022-11-10T08:56:53.932Z,98642.34
2022-11-10T09:00:58.217Z,98653.19
2022-11-10T09:05:01.710Z,98652.22
2022-11-10T09:09:07.386Z,98657.16
2022-11-10T09:13:12.083Z,98664.03
2022-11-10T09:17:15.588Z,98672.53
2022-11-10T09:21:19.117Z,98675.81
2022-11-10T09:25:24.118Z,98689.72
2022-11-10T09:29:27.340Z,98695.72
2022-11-10T09:33:31.021Z,98706.88
2022-11-10T09:37:34.152Z,98706.03
2022-11-10T09:41:42.209Z,98718.66
2022-11-10T09:45:48.747Z,98721.00
2022-11-10T09:49:55.690Z,98727.31
2022-11-10T09:54:02.727Z,98729.34
2022-11-10T09:58:07.658Z,98717.28
2022-11-10T10:02:22.709Z,98732.25
2022-11-10T10:06:30.584Z,98731.25
2022-11-10T10:10:46.234Z,98746.34
2022-11-10T10:15:11.985Z,98738.03
2022-11-10T10:19:27.904Z,98736.88
2022-11-10T10:24:07.052Z,98733.41
2022-11-10T10:28:06.887Z,98737.75
2022-11-10T10:32:15.258Z,98745.84
2022-11-10T10:36:21.303Z,98753.78
2022-11-10T10:40:25.842Z,98754.00
2022-11-10T10:44:29.017Z,98766.22
2022-11-10T10:48:33.659Z,98767.78
2022-11-10T10:52:36.945Z,98765.47
2022-11-10T10:56:40.573Z,98768.97
2022-11-10T11:00:45.107Z,98763.38
2022-11-10T11:04:49.989Z,98763.53
2022-11-10T11:09:00.292Z,98759.09
2022-11-10T11:13:16.200Z,98773.91
2022-11-10T11:17:21.578Z,98780.34
2022-11-10T11:21:35.719Z,98771.59
2022-11-10T11:25:43.687Z,98771.38
2022-11-10T11:30:04.209Z,98780.00
2022-11-10T11:34:14.234Z,98779.78
2022-11-10T11:38:30.875Z,98790.00
2022-11-10T11:42:47.351Z,98781.03
2022-11-10T11:47:01.903Z,98783.19
2022-11-10T11:51:14.350Z,98789.28
2022-11-10T11:55:33.086Z,98793.69
2022-11-10T12:00:01.065Z,98795.78
2022-11-10T12:04:23.069Z,98800.19
2022-11-10T12:08:39.958Z,98797.53
2022-11-10T12:13:06.892Z,98792.59
2022-11-10T12:17:18.243Z,98794.38
2022-11-10T12:21:26.661Z,98801.94
2022-11-10T12:25:36.053Z,98806.28
2022-11-10T12:29:45.784Z,98797.53
2022-11-10T12:33:53.683Z,98789.88
2022-11-10T12:38:03.324Z,98806.28
2022-11-10T12:42:14.537Z,98808.72
2022-11-10T12:46:19.523Z,98813.13
2022-11-10T12:50:34.292Z,98805.88
2022-11-10T12:54:37.772Z,98805.84
2022-11-10T12:58:41.356Z,98817.94
2022-11-10T13:02:48.033Z,98816.94
2022-11-10T13:06:54.323Z,98816.06
2022-11-10T13:11:02.076Z,98822.13
2022-11-10T13:15:44.352Z,98817.50
2022-11-10T13:19:53.966Z,98818.94
2022-11-10T13:24:21.666Z,98822.34
2022-11-10T13:28:57.488Z,98811.16
2022-11-10T13:33:31.570Z,98823.06
2022-11-10T13:37:58.745Z,98821.25
2022-11-10T13:42:05.068Z,98816.25
2022-11-10T13:46:08.645Z,98806.00
2022-11-10T13:50:28.532Z,98799.69
2022-11-10T13:55:02.082Z,98800.25
2022-11-10T13:59:18.628Z,98809.19
2022-11-10T14:03:54.866Z,98822.97
2022-11-10T14:08:05.603Z,98821.22
2022-11-10T14:12:29.989Z,98829.28
2022-11-10T14:16:40.146Z,98822.88
2022-11-10T14:20:45.771Z,98815.50
2022-11-10T14:24:56.079Z,98829.13
2022-11-10T14:29:21.885Z,98841.94
2022-11-10T14:33:26.713Z,98841.78
2022-11-10T14:37:31.692Z,98853.63
2022-11-10T14:41:35.004Z,98855.56
2022-11-10T14:45:41.805Z,98862.13
2022-11-10T14:49:45.744Z,98866.56
2022-11-10T14:53:50.847Z,98861.56
2022-11-10T14:58:06.158Z,98860.50
2022-11-10T15:02:16.774Z,98862.38
2022-11-10T15:06:21.126Z,98855.44
2022-11-10T15:10:26.944Z,98874.19
2022-11-10T15:14:40.079Z,98862.25
2022-11-10T15:18:45.695Z,98867.41
2022-11-10T15:22:51.265Z,98869.03
2022-11-10T15:26:54.781Z,98868.09
2022-11-10T15:31:00.380Z,98865.25
2022-11-10T15:35:25.794Z,98873.78
2022-11-10T15:39:30.775Z,98875.34
2022-11-10T15:43:33.881Z,98887.84
2022-11-10T15:47:37.693Z,98888.97
2022-11-10T15:51:43.607Z,98899.59
2022-11-10T15:55:46.703Z,98911.00
2022-11-10T15:59:50.476Z,98920.50
2022-11-10T16:03:57.573Z,98921.13
2022-11-10T16:08:02.098Z,98921.38
2022-11-10T16:12:06.127Z,98934.00
2022-11-10T16:16:13.567Z,98936.69
2022-11-10T16:20:17.548Z,98940.22
2022-11-10T16:24:22.792Z,98944.59
2022-11-10T16:28:28.617Z,98945.34
2022-11-10T16:32:31.682Z,98955.75
2022-11-10T16:36:36.206Z,98966.09
2022-11-10T16:40:41.037Z,98978.13
2022-11-10T16:44:44.025Z,98986.81
2022-11-10T16:48:49.002Z,98986.41
2022-11-10T16:52:52.583Z,98984.88
2022-11-10T16:56:56.942Z,98986.78
2022-11-10T17:01:02.745Z,98997.31
2022-11-10T17:05:06.851Z,99012.38
2022-11-10T17:09:15.488Z,99010.03
2022-11-10T17:13:20.625Z,99013.81
2022-11-10T17:17:24.411Z,99028.59
2022-11-10T17:21:32.918Z,99029.44
2022-11-10T17:25:38.203Z,99042.47
2022-11-10T17:29:42.748Z,99040.09
2022-11-10T17:33:46.059Z,99042.22
2022-11-10T17:37:52.842Z,99051.94
2022-11-10T17:41:55.986Z,99060.59
2022-11-10T17:46:00.960Z,99055.13
2022-11-10T17:50:04.573Z,99055.97
2022-11-10T17:54:13.687Z,99054.91
2022-11-10T17:58:18.124Z,99061.63
2022-11-10T18:02:22.548Z,99081.28
2022-11-10T18:06:26.069Z,99080.47
2022-11-10T18:10:29.056Z,99085.91
2022-11-10T18:14:34.708Z,99088.16
2022-11-10T18:18:39.247Z,99092.31
2022-11-10T18:22:43.079Z,99107.03
2022-11-10T18:26:46.705Z,99106.94
2022-11-10T18:30:49.776Z,99116.75
2022-11-10T18:34:54.931Z,99125.50
2022-11-10T18:38:57.970Z,99122.34
2022-11-10T18:43:07.157Z,99127.91
2022-11-10T18:47:14.249Z,99124.81
2022-11-10T18:51:19.545Z,99125.16
2022-11-10T18:55:22.681Z,99118.66
2022-11-10T18:59:26.224Z,99118.31
2022-11-10T19:03:29.224Z,99110.03
2022-11-10T19:07:34.060Z,99106.25
2022-11-10T19:11:37.163Z,99101.84
2022-11-10T19:15:42.010Z,99108.00
2022-11-10T19:19:45.081Z,99107.63
2022-11-10T19:23:50.620Z,99114.94
2022-11-10T19:27:53.993Z,99120.38
2022-11-10T19:31:58.023Z,99117.31
2022-11-10T19:36:04.942Z,99122.72
2022-11-10T19:40:11.945Z,99135.13
2022-11-10T19:44:15.050Z,99143.25
2022-11-10T19:48:18.616Z,99145.25
2022-11-10T19:52:23.330Z,99151.50
2022-11-10T19:56:31.683Z,99156.81
2022-11-10T20:00:35.720Z,99156.91
2022-11-10T20:05:00.121Z,99159.66
2022-11-10T20:09:03.493Z,99151.13
2022-11-10T20:13:08.910Z,99170.28
2022-11-10T20:17:11.879Z,99169.84
2022-11-10T20:21:17.350Z,99170.28
2022-11-10T20:25:20.633Z,99176.16
2022-11-10T20:29:26.021Z,99181.06
2022-11-10T20:33:29.650Z,99180.78
2022-11-10T20:37:34.504Z,99195.84
2022-11-10T20:41:38.481Z,99200.56
2022-11-10T20:45:44.184Z,99197.22
2022-11-10T20:49:47.886Z,99193.94
2022-11-10T20:53:51.085Z,99193.41
2022-11-10T20:57:55.282Z,99203.50
2022-11-10T21:02:00.406Z,99217.84
2022-11-10T21:06:04.834Z,99223.47
2022-11-10T21:10:08.869Z,99204.06
2022-11-10T21:14:12.491Z,99193.38
2022-11-10T21:18:17.152Z,99197.31
2022-11-10T21:22:20.963Z,99195.38
2022-11-10T21:26:28.672Z,99189.75
2022-11-10T21:30:32.320Z,99193.59
2022-11-10T21:34:37.071Z,99199.00
2022-11-10T21:38:40.506Z,99192.34
2022-11-10T21:42:43.436Z,99198.34
2022-11-10T21:46:47.331Z,99214.75
2022-11-10T21:50:52.063Z,99225.13
2022-11-10T21:54:55.978Z,99216.41
2022-11-10T21:58:59.182Z,99212.06
2022-11-10T22:03:04.259Z,99214.66
2022-11-10T22:07:24.651Z,99220.69
2022-11-10T22:11:45.274Z,99225.88
2022-11-10T22:16:05.967Z,99218.09
2022-11-10T22:20:10.028Z,99222.44
2022-11-10T22:24:27.982Z,99226.97
2022-11-10T22:28:31.734Z,99226.69
2022-11-10T22:32:34.836Z,99229.88
2022-11-10T22:36:38.424Z,99240.03
2022-11-10T22:41:00.507Z,99230.16
2022-11-10T22:45:04.236Z,99235.13
2022-11-10T22:49:09.328Z,99250.13
2022-11-10T22:53:12.878Z,99247.00
2022-11-10T22:57:17.207Z,99255.91
2022-11-10T23:01:20.831Z,99252.66
2022-11-10T23:05:23.929Z,99257.91
2022-11-10T23:09:27.384Z,99252.94
2022-11-10T23:13:32.453Z,99256.47
2022-11-10T23:17:35.450Z,99273.56
2022-11-10T23:21:38.874Z,99273.22
2022-11-10T23:25:42.312Z,99266.69
2022-11-10T23:29:46.713Z,99256.59
2022-11-10T23:33:52.444Z,99251.81
2022-11-10T23:37:55.428Z,99250.88
2022-11-10T23:41:58.861Z,99248.38
2022-11-10T23:46:07.707Z,99243.50
2022-11-10T23:50:12.022Z,99240.59
2022-11-10T23:54:15.093Z,99236.94
2022-11-10T23:58:18.421Z,99236.56
